createdAt,value
2022-10-20T00:01:26.722Z,3.80
2022-10-20T00:03:56.958Z,3.20
2022-10-20T00:06:28.213Z,3.10
2022-10-20T00:08:58.513Z,3.10
2022-10-20T00:11:28.007Z,2.80
2022-10-20T00:13:58.110Z,3.10
2022-10-20T00:16:28.218Z,3.60
2022-10-20T00:18:57.633Z,3.20
2022-10-20T00:21:28.689Z,3.20
2022-10-20T00:24:00.826Z,3.40
2022-10-20T00:26:32.410Z,3.40
2022-10-20T00:29:04.550Z,3.30
2022-10-20T00:31:32.964Z,3.80
2022-10-20T00:34:01.062Z,3.80
2022-10-20T00:36:29.421Z,3.70
2022-10-20T00:39:00.094Z,3.90
2022-10-20T00:41:29.644Z,3.40
2022-10-20T00:44:03.502Z,2.70
2022-10-20T00:46:41.672Z,2.50
2022-10-20T00:49:21.015Z,3.00
2022-10-20T00:51:51.386Z,2.40
2022-10-20T00:54:24.718Z,2.70
2022-10-20T00:56:56.864Z,3.10
2022-10-20T00:59:30.235Z,4.40
2022-10-20T01:02:01.803Z,3.30
2022-10-20T01:04:31.750Z,2.90
2022-10-20T01:07:00.359Z,3.10
2022-10-20T01:09:29.187Z,3.00
2022-10-20T01:12:08.620Z,3.00
2022-10-20T01:15:03.257Z,4.30
2022-10-20T01:17:46.686Z,3.50
2022-10-20T01:20:29.972Z,3.50
2022-10-20T01:22:58.146Z,3.20
2022-10-20T01:25:32.208Z,3.40
2022-10-20T01:28:15.313Z,3.30
2022-10-20T01:30:53.527Z,2.90
2022-10-20T01:33:44.226Z,2.80
2022-10-20T01:36:24.664Z,2.90
2022-10-20T01:39:01.811Z,3.30
2022-10-20T01:41:54.011Z,3.80
2022-10-20T01:44:27.201Z,3.20
2022-10-20T01:46:57.366Z,3.00
2022-10-20T01:49:26.596Z,3.30
2022-10-20T01:51:56.476Z,3.50
2022-10-20T01:54:30.182Z,3.20
2022-10-20T01:57:17.037Z,2.90
2022-10-20T02:00:07.326Z,2.90
2022-10-20T02:02:43.386Z,2.40
2022-10-20T02:05:41.357Z,3.10
2022-10-20T02:08:24.879Z,2.80
2022-10-20T02:10:57.939Z,3.40
2022-10-20T02:13:28.662Z,3.10
2022-10-20T02:16:01.344Z,3.20
2022-10-20T02:18:34.794Z,3.50
2022-10-20T02:21:04.377Z,3.20
2022-10-20T02:23:37.434Z,3.00
2022-10-20T02:26:07.981Z,2.30
2022-10-20T02:28:41.121Z,2.90
2022-10-20T02:31:10.284Z,3.00
2022-10-20T02:33:39.798Z,2.70
2022-10-20T02:36:15.079Z,3.00
2022-10-20T02:41:12.227Z,3.50
2022-10-20T02:43:40.326Z,3.10
2022-10-20T02:46:08.408Z,3.10
2022-10-20T02:48:38.558Z,3.40
2022-10-20T02:51:06.923Z,3.20
2022-10-20T02:53:34.988Z,3.00
2022-10-20T02:56:03.229Z,2.40
2022-10-20T02:58:31.679Z,2.60
2022-10-20T03:00:59.650Z,2.40
2022-10-20T03:03:27.920Z,2.60
2022-10-20T03:05:56.512Z,3.40
2022-10-20T03:08:24.602Z,5.50
2022-10-20T03:10:52.910Z,2.80
2022-10-20T03:13:21.325Z,3.20
2022-10-20T03:15:49.582Z,3.10
2022-10-20T03:18:17.937Z,3.60
2022-10-20T03:20:46.356Z,3.90
2022-10-20T03:23:17.743Z,3.20
2022-10-20T03:25:48.773Z,3.00
2022-10-20T03:28:17.681Z,2.80
2022-10-20T03:30:47.570Z,2.90
2022-10-20T03:33:16.250Z,3.10
2022-10-20T03:35:44.746Z,2.50
2022-10-20T03:38:13.134Z,2.80
2022-10-20T03:40:42.314Z,2.70
2022-10-20T03:43:10.981Z,3.10
2022-10-20T03:45:39.291Z,2.90
2022-10-20T03:48:07.324Z,3.10
2022-10-20T03:50:37.797Z,3.10
2022-10-20T03:53:05.893Z,2.80
2022-10-20T03:55:34.565Z,2.80
2022-10-20T03:58:03.216Z,2.70
2022-10-20T04:00:31.782Z,3.60
2022-10-20T04:03:00.118Z,2.90
2022-10-20T04:05:28.675Z,3.30
2022-10-20T04:07:57.444Z,3.20
2022-10-20T04:10:25.994Z,2.90
2022-10-20T04:12:58.603Z,3.40
2022-10-20T04:15:26.619Z,3.40
2022-10-20T04:17:54.858Z,3.40
2022-10-20T04:20:23.128Z,3.20
2022-10-20T04:22:51.431Z,3.00
2022-10-20T04:25:20.471Z,3.20
2022-10-20T04:27:48.968Z,3.30
2022-10-20T04:30:17.465Z,3.00
2022-10-20T04:32:45.542Z,3.50
2022-10-20T04:35:13.944Z,3.00
2022-10-20T04:37:42.151Z,3.30
2022-10-20T04:40:10.692Z,3.40
2022-10-20T04:42:38.590Z,2.90
2022-10-20T04:45:07.136Z,3.30
2022-10-20T04:47:38.133Z,3.10
2022-10-20T04:50:07.150Z,3.40
2022-10-20T04:52:35.492Z,3.70
2022-10-20T04:55:04.114Z,3.30
2022-10-20T04:57:32.423Z,3.70
2022-10-20T05:00:00.842Z,3.70
2022-10-20T05:02:30.679Z,3.90
2022-10-20T05:04:59.201Z,3.70
2022-10-20T05:07:30.847Z,3.20
2022-10-20T05:09:59.281Z,3.70
2022-10-20T05:12:28.832Z,3.30
2022-10-20T05:14:56.985Z,3.20
2022-10-20T05:17:25.223Z,5.60
2022-10-20T05:19:53.513Z,4.40
2022-10-20T05:22:21.653Z,4.20
2022-10-20T05:24:49.966Z,3.90
2022-10-20T05:27:17.676Z,3.50
2022-10-20T05:29:45.503Z,3.00
2022-10-20T05:32:13.596Z,2.90
2022-10-20T05:34:42.073Z,2.80
2022-10-20T05:37:10.029Z,2.70
2022-10-20T05:39:38.316Z,2.90
2022-10-20T05:42:06.526Z,3.10
2022-10-20T05:44:35.028Z,3.00
2022-10-20T05:47:03.616Z,3.50
2022-10-20T05:49:32.069Z,2.90
2022-10-20T05:52:00.174Z,2.70
2022-10-20T05:54:28.360Z,3.20
2022-10-20T05:56:56.832Z,3.00
2022-10-20T05:59:25.266Z,3.10
2022-10-20T06:01:53.578Z,2.60
2022-10-20T06:04:24.102Z,3.40
2022-10-20T06:06:53.505Z,2.70
2022-10-20T06:09:23.080Z,4.00
2022-10-20T06:11:56.107Z,2.80
2022-10-20T06:14:26.271Z,3.00
2022-10-20T06:16:56.405Z,2.70
2022-10-20T06:19:27.178Z,2.80
2022-10-20T06:21:56.275Z,2.80
2022-10-20T06:24:24.945Z,2.20
2022-10-20T06:26:54.860Z,2.50
2022-10-20T06:29:23.463Z,2.40
2022-10-20T06:31:52.152Z,2.70
2022-10-20T06:34:25.932Z,2.50
2022-10-20T06:36:54.490Z,2.80
2022-10-20T06:39:24.820Z,2.40
2022-10-20T06:41:59.809Z,2.30
2022-10-20T06:44:33.037Z,2.30
2022-10-20T06:47:01.623Z,2.40
2022-10-20T06:49:30.410Z,2.40
2022-10-20T06:51:59.029Z,5.50
2022-10-20T06:54:27.550Z,8.70
2022-10-20T06:56:56.177Z,5.70
2022-10-20T06:59:25.054Z,2.50
2022-10-20T07:01:53.524Z,6.40
2022-10-20T07:04:21.631Z,2.80
2022-10-20T07:06:50.343Z,2.20
2022-10-20T07:09:21.005Z,1.30
2022-10-20T07:11:53.312Z,3.10
2022-10-20T07:14:22.204Z,2.30
2022-10-20T07:16:51.027Z,2.20
2022-10-20T07:19:19.921Z,2.10
2022-10-20T07:21:48.683Z,3.00
2022-10-20T07:24:17.404Z,2.00
2022-10-20T07:26:46.099Z,2.30
2022-10-20T07:29:15.032Z,1.90
2022-10-20T07:31:48.243Z,2.40
2022-10-20T07:34:27.454Z,1.70
2022-10-20T07:36:58.746Z,2.20
2022-10-20T07:39:29.070Z,1.90
2022-10-20T07:41:57.452Z,1.70
2022-10-20T07:44:25.765Z,1.60
2022-10-20T07:46:54.211Z,1.50
2022-10-20T07:52:12.044Z,1.70
2022-10-20T07:54:40.475Z,1.40
2022-10-20T07:57:08.830Z,1.30
2022-10-20T07:59:38.118Z,47.30
2022-10-20T08:02:06.606Z,4.40
2022-10-20T08:04:36.947Z,0.90
2022-10-20T08:07:06.258Z,1.20
2022-10-20T08:09:34.642Z,2.00
2022-10-20T08:12:04.343Z,1.90
2022-10-20T08:14:35.219Z,1.50
2022-10-20T08:17:04.786Z,1.70
2022-10-20T08:22:16.291Z,1.30
2022-10-20T08:24:44.832Z,1.50
2022-10-20T08:27:13.803Z,1.50
2022-10-20T08:29:47.710Z,1.10
2022-10-20T08:32:23.410Z,1.30
2022-10-20T08:34:51.482Z,4.60
2022-10-20T08:37:19.932Z,1.30
2022-10-20T08:39:48.371Z,1.90
2022-10-20T08:42:17.768Z,1.40
2022-10-20T08:44:47.910Z,1.40
2022-10-20T08:47:27.862Z,1.70
2022-10-20T08:50:00.352Z,1.40
2022-10-20T08:52:29.059Z,2.30
2022-10-20T08:54:58.847Z,1.80
2022-10-20T08:57:34.760Z,1.30
2022-10-20T09:00:23.701Z,2.50
2022-10-20T09:02:52.712Z,1.90
2022-10-20T09:05:26.023Z,1.50
2022-10-20T09:07:55.340Z,1.60
2022-10-20T09:10:41.695Z,1.50
2022-10-20T09:13:21.403Z,1.40
2022-10-20T09:16:03.849Z,1.50
2022-10-20T09:18:34.482Z,1.40
2022-10-20T09:21:17.116Z,1.30
2022-10-20T09:23:48.882Z,3.40
2022-10-20T09:29:39.395Z,1.70
2022-10-20T09:32:45.470Z,1.50
2022-10-20T09:35:20.448Z,1.30
2022-10-20T09:37:55.058Z,1.30
2022-10-20T09:40:26.518Z,1.40
2022-10-20T09:43:00.034Z,1.10
2022-10-20T09:45:31.630Z,1.30
2022-10-20T09:48:17.532Z,1.10
2022-10-20T09:50:50.231Z,1.20
2022-10-20T09:53:22.694Z,1.50
2022-10-20T09:55:52.428Z,1.50
2022-10-20T09:58:34.112Z,1.10
2022-10-20T10:01:07.240Z,0.60
2022-10-20T10:04:01.874Z,1.10
2022-10-20T10:06:43.540Z,0.70
2022-10-20T10:09:34.417Z,1.60
2022-10-20T10:12:21.033Z,1.50
2022-10-20T10:15:08.384Z,1.80
2022-10-20T10:17:43.626Z,1.30
2022-10-20T10:22:41.610Z,9.80
2022-10-20T10:25:28.373Z,2.10
2022-10-20T10:28:09.140Z,0.50
2022-10-20T10:30:38.989Z,0.50
2022-10-20T10:33:27.082Z,1.70
2022-10-20T10:35:56.465Z,0.90
2022-10-20T10:38:25.630Z,1.50
2022-10-20T10:41:12.498Z,1.00
2022-10-20T10:43:48.836Z,1.40
2022-10-20T10:46:28.031Z,1.20
2022-10-20T10:49:32.493Z,1.50
2022-10-20T10:52:23.577Z,1.60
2022-10-20T10:55:06.363Z,1.50
2022-10-20T10:57:53.562Z,1.20
2022-10-20T11:00:50.249Z,1.60
2022-10-20T11:03:34.061Z,2.20
2022-10-20T11:06:16.746Z,1.60
2022-10-20T11:09:33.273Z,1.90
2022-10-20T11:12:32.743Z,1.70
2022-10-20T11:15:19.485Z,1.50
2022-10-20T11:18:14.756Z,1.60
2022-10-20T11:20:46.561Z,1.60
2022-10-20T11:23:39.808Z,1.30
2022-10-20T11:26:35.801Z,0.90
2022-10-20T11:29:16.391Z,1.60
2022-10-20T11:32:04.939Z,1.70
2022-10-20T11:34:38.451Z,2.40
2022-10-20T11:37:20.473Z,2.10
2022-10-20T11:40:12.135Z,1.70
2022-10-20T11:42:55.463Z,2.10
2022-10-20T11:45:39.160Z,0.90
2022-10-20T11:48:13.620Z,1.90
2022-10-20T11:50:48.347Z,1.60
2022-10-20T11:53:39.568Z,1.80
2022-10-20T11:56:13.802Z,1.50
2022-10-20T11:59:01.824Z,1.20
2022-10-20T12:01:58.025Z,0.70
2022-10-20T12:05:10.073Z,2.10
2022-10-20T12:07:48.643Z,2.00
2022-10-20T12:10:24.968Z,2.20
2022-10-20T12:13:31.153Z,1.80
2022-10-20T12:16:00.039Z,1.80
2022-10-20T12:18:33.710Z,1.60
2022-10-20T12:21:08.388Z,1.80
2022-10-20T12:23:43.155Z,1.70
2022-10-20T12:26:30.377Z,1.80
2022-10-20T12:29:01.292Z,1.50
2022-10-20T12:32:07.737Z,1.70
2022-10-20T12:34:42.187Z,1.40
2022-10-20T12:37:26.678Z,1.60
2022-10-20T12:39:57.413Z,0.70
2022-10-20T12:42:36.888Z,2.00
2022-10-20T12:45:09.717Z,2.00
2022-10-20T12:47:38.593Z,1.60
2022-10-20T12:50:19.919Z,1.10
2022-10-20T12:52:49.569Z,1.90
2022-10-20T12:55:25.663Z,1.60
2022-10-20T12:58:18.024Z,1.10
2022-10-20T13:00:46.567Z,1.10
2022-10-20T13:03:39.248Z,5.80
2022-10-20T13:06:24.396Z,1.60
2022-10-20T13:09:04.030Z,1.50
2022-10-20T13:11:53.080Z,1.80
2022-10-20T13:14:28.062Z,1.10
2022-10-20T13:17:17.827Z,1.50
2022-10-20T13:20:01.389Z,1.60
2022-10-20T13:22:45.255Z,1.10
2022-10-20T13:25:29.968Z,1.50
2022-10-20T13:28:04.473Z,1.50
2022-10-20T13:30:36.141Z,1.10
2022-10-20T13:33:33.889Z,1.60
2022-10-20T13:36:16.130Z,1.30
2022-10-20T13:39:26.434Z,1.90
2022-10-20T13:42:05.511Z,1.10
2022-10-20T13:44:48.733Z,1.40
2022-10-20T13:47:40.282Z,1.70
2022-10-20T13:50:16.603Z,1.30
2022-10-20T13:52:50.300Z,1.90
2022-10-20T13:55:26.392Z,1.60
2022-10-20T13:57:57.846Z,2.50
2022-10-20T14:00:30.560Z,1.50
2022-10-20T14:03:15.184Z,1.80
2022-10-20T14:05:43.508Z,1.70
2022-10-20T14:08:17.127Z,1.20
2022-10-20T14:10:56.431Z,1.50
2022-10-20T14:13:34.574Z,1.90
2022-10-20T14:16:07.626Z,2.20
2022-10-20T14:18:40.626Z,1.10
2022-10-20T14:21:20.202Z,1.90
2022-10-20T14:23:51.597Z,1.50
2022-10-20T14:26:23.031Z,2.00
2022-10-20T14:28:53.885Z,2.20
2022-10-20T14:31:24.665Z,1.70
2022-10-20T14:33:53.909Z,1.90
2022-10-20T14:36:31.595Z,1.70
2022-10-20T14:39:01.487Z,1.70
2022-10-20T14:41:33.420Z,1.70
2022-10-20T14:44:16.260Z,1.80
2022-10-20T14:46:53.588Z,1.60
2022-10-20T14:49:32.744Z,1.80
2022-10-20T14:52:06.282Z,2.10
2022-10-20T14:54:39.586Z,2.00
2022-10-20T14:57:08.218Z,2.20
2022-10-20T15:00:06.376Z,2.00
2022-10-20T15:02:40.861Z,2.30
2022-10-20T15:05:36.746Z,2.50
2022-10-20T15:08:17.475Z,2.80
2022-10-20T15:10:46.836Z,2.30
2022-10-20T15:13:27.690Z,2.60
2022-10-20T15:15:59.988Z,2.40
2022-10-20T15:18:29.691Z,2.50
2022-10-20T15:20:58.135Z,2.50
2022-10-20T15:23:28.320Z,2.10
2022-10-20T15:26:07.094Z,2.50
2022-10-20T15:28:47.144Z,2.20
2022-10-20T15:31:27.043Z,2.40
2022-10-20T15:33:56.928Z,2.30
2022-10-20T15:36:33.689Z,2.30
2022-10-20T15:39:02.423Z,2.90
2022-10-20T15:41:33.676Z,3.50
2022-10-20T15:44:22.331Z,3.40
2022-10-20T15:46:55.112Z,3.40
2022-10-20T15:49:23.968Z,3.80
2022-10-20T15:51:52.140Z,3.70
2022-10-20T15:54:22.690Z,3.50
2022-10-20T15:56:51.246Z,3.60
2022-10-20T15:59:19.287Z,3.80
2022-10-20T16:01:47.697Z,4.40
2022-10-20T16:04:18.362Z,4.50
2022-10-20T16:06:47.339Z,4.50
2022-10-20T16:09:16.332Z,3.90
2022-10-20T16:11:45.593Z,4.80
2022-10-20T16:14:15.712Z,4.90
2022-10-20T16:16:45.268Z,4.30
2022-10-20T16:19:14.010Z,4.70
2022-10-20T16:21:42.399Z,5.10
2022-10-20T16:24:11.642Z,4.80
2022-10-20T16:26:40.314Z,5.80
2022-10-20T16:29:08.416Z,5.90
2022-10-20T16:31:36.770Z,7.00
2022-10-20T16:34:05.121Z,6.70
2022-10-20T16:36:33.974Z,7.10
2022-10-20T16:39:02.463Z,7.40
2022-10-20T16:41:30.648Z,7.90
2022-10-20T16:44:01.066Z,7.80
2022-10-20T16:46:29.973Z,7.90
2022-10-20T16:48:58.027Z,8.10
2022-10-20T16:51:26.268Z,8.10
2022-10-20T16:53:57.320Z,9.00
2022-10-20T16:56:27.823Z,9.00
2022-10-20T16:58:56.228Z,9.20
2022-10-20T17:01:24.999Z,8.30
2022-10-20T17:03:53.800Z,8.30
2022-10-20T17:06:24.653Z,7.60
2022-10-20T17:08:54.265Z,8.10
2022-10-20T17:11:25.685Z,7.60
2022-10-20T17:13:54.128Z,7.20
2022-10-20T17:16:31.515Z,7.30
2022-10-20T17:19:02.670Z,7.10
2022-10-20T17:21:33.639Z,7.50
2022-10-20T17:24:02.585Z,7.40
2022-10-20T17:26:31.670Z,8.30
2022-10-20T17:29:01.325Z,7.60
2022-10-20T17:31:30.231Z,8.90
2022-10-20T17:33:59.376Z,8.20
2022-10-20T17:36:28.789Z,9.00
2022-10-20T17:39:02.946Z,8.50
2022-10-20T17:41:31.026Z,8.60
2022-10-20T17:44:00.910Z,9.30
2022-10-20T17:46:29.153Z,11.00
2022-10-20T17:48:57.231Z,9.90
2022-10-20T17:51:28.969Z,9.10
2022-10-20T17:53:59.892Z,8.50
2022-10-20T17:56:35.898Z,8.00
2022-10-20T17:59:06.590Z,7.10
2022-10-20T18:01:38.676Z,7.70
2022-10-20T18:04:10.431Z,8.10
2022-10-20T18:06:39.679Z,7.40
2022-10-20T18:09:13.328Z,7.60
2022-10-20T18:11:48.301Z,8.30
2022-10-20T18:14:17.321Z,7.70
2022-10-20T18:16:46.178Z,7.50
2022-10-20T18:19:17.960Z,8.10
2022-10-20T18:21:47.105Z,8.60
2022-10-20T18:24:18.045Z,8.00
2022-10-20T18:26:46.913Z,8.60
2022-10-20T18:29:16.371Z,8.70
2022-10-20T18:31:46.214Z,9.10
2022-10-20T18:34:17.490Z,9.00
2022-10-20T18:36:46.373Z,8.40
2022-10-20T18:39:15.810Z,8.40
2022-10-20T18:41:45.816Z,9.00
2022-10-20T18:44:16.997Z,8.80
2022-10-20T18:46:47.442Z,8.70
2022-10-20T18:49:19.813Z,8.50
2022-10-20T18:51:48.410Z,8.30
2022-10-20T18:54:19.146Z,7.90
2022-10-20T18:56:47.477Z,9.00
2022-10-20T18:59:17.299Z,9.40
2022-10-20T19:01:46.089Z,9.50
2022-10-20T19:04:14.330Z,10.60
2022-10-20T19:06:45.391Z,10.70
2022-10-20T19:09:19.721Z,10.80
2022-10-20T19:14:18.805Z,12.20
2022-10-20T19:16:48.798Z,13.20
2022-10-20T19:19:16.770Z,12.00
2022-10-20T19:21:45.237Z,13.00
2022-10-20T19:24:20.165Z,13.70
2022-10-20T19:26:57.559Z,12.70
2022-10-20T19:29:37.273Z,13.40
2022-10-20T19:32:06.682Z,11.80
2022-10-20T19:34:37.880Z,11.30
2022-10-20T19:37:06.516Z,10.70
2022-10-20T19:39:38.854Z,9.80
2022-10-20T19:42:08.881Z,9.70
2022-10-20T19:44:37.898Z,10.00
2022-10-20T19:47:08.258Z,10.40
2022-10-20T19:49:37.891Z,10.30
2022-10-20T19:52:07.934Z,10.20
2022-10-20T19:54:36.227Z,9.90
2022-10-20T19:57:06.346Z,10.60
2022-10-20T19:59:34.365Z,10.60
2022-10-20T20:02:02.373Z,11.90
2022-10-20T20:04:30.618Z,11.90
2022-10-20T20:07:02.153Z,10.60
2022-10-20T20:09:31.369Z,11.30
2022-10-20T20:11:59.439Z,10.90
2022-10-20T20:14:28.275Z,11.00
2022-10-20T20:16:56.408Z,11.30
2022-10-20T20:19:24.516Z,10.40
2022-10-20T20:21:52.848Z,11.00
2022-10-20T20:24:20.768Z,10.50
2022-10-20T20:26:48.744Z,9.90
2022-10-20T20:29:16.811Z,9.70
2022-10-20T20:31:45.017Z,10.80
2022-10-20T20:34:13.047Z,10.30
2022-10-20T20:36:41.038Z,10.70
2022-10-20T20:39:09.221Z,10.70
2022-10-20T20:41:37.100Z,11.70
2022-10-20T20:44:08.343Z,11.00
2022-10-20T20:46:37.307Z,11.20
2022-10-20T20:49:06.123Z,10.90
2022-10-20T20:51:34.459Z,10.30
2022-10-20T20:54:05.203Z,10.40
2022-10-20T20:56:33.052Z,11.00
2022-10-20T20:59:01.006Z,11.40
2022-10-20T21:01:34.177Z,10.50
2022-10-20T21:04:05.274Z,11.50
2022-10-20T21:06:49.338Z,10.40
2022-10-20T21:09:21.673Z,10.00
2022-10-20T21:11:49.710Z,10.10
2022-10-20T21:14:18.202Z,9.40
2022-10-20T21:16:46.611Z,10.10
2022-10-20T21:19:14.991Z,10.30
2022-10-20T21:21:50.323Z,9.30
2022-10-20T21:24:18.726Z,9.30
2022-10-20T21:26:47.197Z,9.90
2022-10-20T21:29:15.122Z,10.50
2022-10-20T21:31:43.594Z,10.40
2022-10-20T21:34:11.916Z,10.00
2022-10-20T21:36:40.302Z,10.50
2022-10-20T21:39:12.394Z,10.50
2022-10-20T21:41:40.743Z,9.60
2022-10-20T21:44:10.035Z,9.40
2022-10-20T21:46:47.771Z,9.50
2022-10-20T21:49:19.391Z,10.70
2022-10-20T21:51:50.769Z,9.10
2022-10-20T21:56:49.885Z,9.40
2022-10-20T21:59:20.094Z,9.50
2022-10-20T22:01:48.849Z,8.70
2022-10-20T22:04:22.551Z,8.60
2022-10-20T22:06:50.760Z,8.50
2022-10-20T22:09:19.404Z,8.00
2022-10-20T22:11:51.797Z,7.50
2022-10-20T22:14:20.234Z,7.80
2022-10-20T22:16:48.762Z,7.70
2022-10-20T22:19:19.984Z,7.60
2022-10-20T22:21:50.076Z,7.80
2022-10-20T22:24:19.870Z,7.20
2022-10-20T22:26:49.524Z,8.80
2022-10-20T22:29:19.021Z,8.10
2022-10-20T22:31:47.507Z,8.30
2022-10-20T22:34:15.898Z,8.10
2022-10-20T22:36:44.683Z,8.20
2022-10-20T22:39:14.118Z,8.20
2022-10-20T22:41:42.206Z,8.20
2022-10-20T22:44:10.958Z,7.80
2022-10-20T22:46:39.186Z,7.80
2022-10-20T22:49:07.660Z,8.00
2022-10-20T22:51:36.121Z,7.40
2022-10-20T22:54:04.469Z,7.40
2022-10-20T22:56:32.676Z,7.80
2022-10-20T22:59:00.955Z,7.00
2022-10-20T23:01:29.034Z,6.50
2022-10-20T23:03:56.951Z,7.30
2022-10-20T23:06:26.707Z,8.20
2022-10-20T23:08:56.465Z,7.00
2022-10-20T23:11:25.091Z,7.90
2022-10-20T23:13:53.444Z,8.30
2022-10-20T23:16:21.936Z,7.40
2022-10-20T23:18:49.979Z,7.70
2022-10-20T23:21:18.768Z,7.60
2022-10-20T23:23:47.091Z,7.90
2022-10-20T23:26:15.427Z,8.20
2022-10-20T23:28:43.595Z,8.50
2022-10-20T23:31:14.449Z,8.00
2022-10-20T23:33:44.601Z,8.90
2022-10-20T23:36:14.571Z,7.90
2022-10-20T23:38:44.003Z,8.10
2022-10-20T23:41:12.233Z,8.20
2022-10-20T23:43:40.731Z,7.90
2022-10-20T23:46:09.752Z,8.50
2022-10-20T23:48:38.404Z,7.70
2022-10-20T23:51:07.449Z,7.80
2022-10-20T23:53:35.689Z,7.50
2022-10-20T23:56:04.275Z,7.10
2022-10-20T23:58:32.209Z,7.40
